Dipper Harbour West, Canada
Current Conditions -  °F | °C
As of 3:00 PM on Friday 31 Oct 2014 (Local Time) from CYSJ Reporting Station
Broken Clouds Broken Clouds  
Wind Chill: 50°   Ceiling: 6000
Heat Index: 50°   Visibility: 15mi
Dew Point: 36°   Wind: 8mph
Humidity: 58%   Direction: 80°E
Pressure: 30.03"   Gusts: NA
Location:  45.09°N, 66.44°W
Report Text: CYSJ 311800Z 08007KT 15SM FEW040 BKN060 10/02 A3003 RMK CU2SC5 SLP172
Loading
Personal Weather Stations






























Interactive Weather Map
Tropical Storm Tracking
New forecast layout! Learn more

10-Day Weather Forecast

Advertisements
Track Severe Weather on mobile